Flight Track Log - Related Links

Times and Time Zones

All times are in EDT time to prevent confusion due to time zone crossing. See the DAL2451 flight status page for this flight to view local times or setup timezone preferences in your user account.

Time Position Orientation Groundspeed Altitude Reporting Facility
EDT Latitude Longitude Course Direction KTS MPH feet Rate Location/Type
Thu 08:38:06 AM 33.6450 -84.4350 270° West  Level FlightAware ADS-B
Thu 08:41:00 AM 33.7695 -84.5667 North  Level FlightAware Approximate
Thu 08:45:00 AM 33.7705 -84.5667 North  Level FlightAware Approximate
Thu 08:46:00 AM 33.8814 -84.5667 North  Level FlightAware Approximate
Thu 08:47:00 AM 33.9867 -84.6079 342° North  Level FlightAware Approximate
Thu 08:48:00 AM 34.0919 -84.6500 342° North  Level FlightAware Approximate
Thu 08:49:00 AM 34.1971 -84.6921 342° North  Level FlightAware Approximate
Thu 08:50:00 AM 34.3033 -84.7240 340° North  Level FlightAware Approximate
Thu 08:51:00 AM 34.4073 -84.7707 340° North  Level FlightAware Approximate
Thu 08:52:00 AM 34.5112 -84.8176 340° North  Level FlightAware Approximate
Thu 08:53:00 AM 34.6150 -84.8645 340° North  Level FlightAware Approximate
Thu 08:54:00 AM 34.7189 -84.9116 340° North  Level FlightAware Approximate
Thu 08:55:00 AM 34.8228 -84.9585 340° North  Level FlightAware Approximate
Thu 08:56:00 AM 34.9268 -85.0052 340° North  Level FlightAware Approximate
Thu 08:57:00 AM 35.0308 -85.0521 340° North  Level FlightAware Approximate
Thu 08:58:00 AM 35.1152 -85.1087 306° West  Level FlightAware Approximate
Thu 08:59:00 AM 35.1759 -85.2053 309° West  Level FlightAware Approximate
Thu 09:00:00 AM 35.2390 -85.2995 309° West  Level FlightAware Approximate
Thu 09:02:32 AM 33.6470 -84.4280 90° East 125 144  Level FlightAware ADS-B
Thu 09:02:56 AM 33.6470 -84.4040 90° East 177 204 1,400 2,760 Climbing FlightAware ADS-B
Thu 09:03:22 AM 33.6460 -84.3780 93° East 197 227 2,300 1,957 Climbing FlightAware ADS-B
Thu 09:03:42 AM 33.6500 -84.3550 78° East 222 255 2,900 1,688 Climbing FlightAware ADS-B
Thu 09:03:54 AM 33.6530 -84.3400 76° East 238 274 3,200 2,063 Climbing FlightAware ADS-B
Thu 09:04:14 AM 33.6590 -84.3130 75° East 257 296 4,000 2,857 Climbing FlightAware ADS-B
Thu 09:04:36 AM 33.6690 -84.2840 67° East 257 296 5,200 3,200 Climbing FlightAware ADS-B
Thu 09:04:44 AM 33.6760 -84.2760 44° Northeast 260 299 5,600 2,625 Climbing FlightAware ADS-B
Thu 09:04:52 AM 33.6840 -84.2710 27° Northeast 262 302 5,900 2,500 Climbing FlightAware ADS-B
Thu 09:04:56 AM 33.6890 -84.2690 18° North 263 303 6,100 3,000 Climbing FlightAware ADS-B
Thu 09:05:06 AM 33.7010 -84.2670 North 266 306 6,600 3,200 Climbing FlightAware ADS-B
Thu 09:05:26 AM 33.7260 -84.2690 356° North 269 310 7,700 3,000 Climbing FlightAware ADS-B
Thu 09:05:46 AM 33.7510 -84.2720 354° North 275 316 8,600 3,000 Climbing FlightAware ADS-B
Thu 09:05:54 AM 33.7610 -84.2760 342° North 275 316 9,100 3,000 Climbing FlightAware ADS-B
Thu 09:06:02 AM 33.7700 -84.2810 335° Northwest 279 321 9,400 1,800 Climbing FlightAware ADS-B
Thu 09:06:14 AM 33.7830 -84.2910 327° Northwest 278 320 9,700 833 Climbing FlightAware ADS-B
Thu 09:06:38 AM 33.8080 -84.3140 323° Northwest 277 319 9,900 750 Climbing FlightAware ADS-B
Thu 09:07:10 AM 33.8410 -84.3430 324° Northwest 293 337 10,400 1,059 Climbing FlightAware ADS-B
Thu 09:07:46 AM 33.8840 -84.3820 323° Northwest 336 387 11,100 1,417 Climbing FlightAware ADS-B
Thu 09:08:22 AM 33.9300 -84.4220 324° Northwest 359 413 12,100 2,087 Climbing FlightAware ADS-B
Thu 09:08:55 AM 33.9740 -84.4610 324° Northwest 364 419 13,500 2,348 Climbing FlightAware ADS-B
Thu 09:09:31 AM 34.0240 -84.5050 324° Northwest 371 427 14,800 2,282 Climbing FlightAware ADS-B
Thu 09:10:06 AM 34.0740 -84.5500 323° Northwest 373 429 16,200 2,366 Climbing FlightAware ADS-B
Thu 09:10:42 AM 34.1220 -84.5930 323° Northwest 373 429 17,600 2,262 Climbing FlightAware ADS-B
Thu 09:11:07 AM 34.1570 -84.6250 323° Northwest 374 430 18,500 1,946 Climbing FlightAware ADS-B
Thu 09:11:56 AM 34.2260 -84.6870 323° Northwest 380 437 20,000 1,870 Climbing FlightAware ADS-B
Thu 09:12:24 AM 34.2700 -84.7180 330° Northwest 382 440 20,900 1,781 Climbing FlightAware ADS-B
Thu 09:13:00 AM 34.3280 -84.7450 339° North 388 447 21,900 1,629 Climbing FlightAware ADS-B
Thu 09:13:34 AM 34.3870 -84.7710 340° North 393 452 22,800 1,588 Climbing FlightAware ADS-B
Thu 09:14:08 AM 34.4470 -84.7970 340° North 399 459 23,700 1,417 Climbing FlightAware ADS-B
Thu 09:14:46 AM 34.5130 -84.8260 340° North 408 470 24,500 1,135 Climbing FlightAware ADS-B
Thu 09:15:22 AM 34.5780 -84.8550 340° North 420 483 25,100 1,371 Climbing FlightAware ADS-B
Thu 09:15:56 AM 34.6400 -84.8820 340° North 420 483 26,100 1,520 Climbing FlightAware ADS-B
Thu 09:16:37 AM 34.7100 -84.9140 339° North 424 488 27,000 1,308 Climbing FlightAware ADS-B
Thu 09:17:14 AM 34.7810 -84.9450 340° North 429 494 27,800 1,304 Climbing FlightAware ADS-B
Thu 09:17:46 AM 34.8410 -84.9710 340° North 431 496 28,500 1,457 Climbing FlightAware ADS-B
Thu 09:18:24 AM 34.9130 -85.0040 339° North 431 496 29,500 1,541 Climbing FlightAware ADS-B
Thu 09:19:00 AM 34.9830 -85.0350 340° North 429 494 30,400 1,588 Climbing FlightAware ADS-B
Thu 09:19:32 AM 35.0430 -85.0620 340° North 426 490 31,300 1,676 Climbing FlightAware ADS-B
Thu 09:20:08 AM 35.1070 -85.0980 335° Northwest 416 479 32,300 1,527 Climbing FlightAware ADS-B
Thu 09:20:27 AM 35.1310 -85.1230 320° Northwest 414 476 32,700 1,286 Climbing FlightAware ADS-B
Thu 09:21:04 AM 35.1780 -85.1920 310° West 412 474 33,500 1,315 Climbing FlightAware ADS-B
Thu 09:21:40 AM 35.2200 -85.2580 308° West 409 471 34,300 1,583 Climbing FlightAware ADS-B
Thu 09:22:16 AM 35.2630 -85.3230 309° West 396 456 35,400 1,478 Climbing FlightAware ADS-B
Thu 09:22:49 AM 35.2980 -85.3780 308° West 387 445 36,000 529 Climbing FlightAware ADS-B
Thu 09:23:24 AM 35.3390 -85.4390 309° West 386 444 36,000  Level FlightAware ADS-B
Thu 09:24:00 AM 35.3790 -85.5010 308° West 391 450 36,000  Level FlightAware ADS-B
Thu 09:24:32 AM 35.4160 -85.5580 309° West 394 453 36,000  Level FlightAware ADS-B
Thu 09:25:06 AM 35.4540 -85.6160 309° West 395 455 36,000  Level FlightAware ADS-B
Thu 09:25:44 AM 35.4980 -85.6830 309° West 398 458 36,000  Level FlightAware ADS-B
Thu 09:26:18 AM 35.5370 -85.7440 308° West 400 460 36,000  Level FlightAware ADS-B
Thu 09:26:53 AM 35.5760 -85.8040 309° West 401 461 36,000  Level FlightAware ADS-B
Thu 09:27:27 AM 35.6160 -85.8670 308° West 400 460 36,000  Level FlightAware ADS-B
Thu 09:28:03 AM 35.6570 -85.9300 309° West 401 461 36,000  Level FlightAware ADS-B
Thu 09:28:41 AM 35.7000 -85.9980 308° West 400 460 36,000  Level FlightAware ADS-B
Thu 09:29:13 AM 35.7380 -86.0560 309° West 400 460 36,000  Level FlightAware ADS-B
Thu 09:29:49 AM 35.7790 -86.1210 308° West 400 460 36,000  Level FlightAware ADS-B
Thu 09:30:23 AM 35.8170 -86.1800 308° West 399 459 36,000  Level FlightAware ADS-B
Thu 09:31:01 AM 35.8610 -86.2490 308° West 398 458 36,000  Level FlightAware ADS-B
Thu 09:31:33 AM 35.8970 -86.3050 308° West 398 458 36,000  Level FlightAware ADS-B
Thu 09:32:11 AM 35.9380 -86.3700 308° West 397 457 36,000  Level FlightAware ADS-B
Thu 09:32:43 AM 35.9760 -86.4300 308° West 396 456 36,000  Level FlightAware ADS-B
Thu 09:33:15 AM 36.0120 -86.4870 308° West 396 456 36,000  Level FlightAware ADS-B
Thu 09:33:52 AM 36.0520 -86.5500 308° West 395 455 36,000  Level FlightAware ADS-B
Thu 09:34:21 AM 36.0870 -86.6060 308° West 396 456 36,000  Level FlightAware ADS-B
Thu 09:34:57 AM 36.1290 -86.6700 309° West 395 455 36,000  Level FlightAware ADS-B
Thu 09:35:33 AM 36.1710 -86.7290 311° West 394 453 36,000  Level FlightAware ADS-B
Thu 09:36:06 AM 36.2110 -86.7830 313° West 394 453 36,000  Level FlightAware ADS-B
Thu 09:36:43 AM 36.2580 -86.8440 314° West 395 455 36,000  Level FlightAware ADS-B
Thu 09:37:17 AM 36.3020 -86.9020 313° West 395 455 36,000  Level FlightAware ADS-B
Thu 09:37:53 AM 36.3460 -86.9610 313° West 396 456 36,000  Level FlightAware ADS-B
Thu 09:38:29 AM 36.3920 -87.0220 313° West 398 458 36,000  Level FlightAware ADS-B
Thu 09:39:01 AM 36.4320 -87.0750 313° West 399 459 36,000  Level FlightAware ADS-B
Thu 09:39:35 AM 36.4750 -87.1320 313° West 399 459 36,000  Level FlightAware ADS-B
Thu 09:40:13 AM 36.5220 -87.1950 313° West 401 461 36,000  Level FlightAware ADS-B
Thu 09:40:50 AM 36.5680 -87.2570 313° West 403 464 36,000  Level FlightAware ADS-B
Thu 09:41:21 AM 36.6080 -87.3100 313° West 404 465 36,000  Level FlightAware ADS-B
Thu 09:41:57 AM 36.6540 -87.3720 313° West 406 467 36,000  Level FlightAware ADS-B
Thu 09:42:34 AM 36.7010 -87.4350 313° West 406 467 36,000  Level FlightAware ADS-B
Thu 09:43:07 AM 36.7440 -87.4930 313° West 408 470 36,000  Level FlightAware ADS-B
Thu 09:43:45 AM 36.7910 -87.5560 313° West 409 471 36,000  Level FlightAware ADS-B
Thu 09:44:16 AM 36.8310 -87.6110 312° West 410 472 36,000  Level FlightAware ADS-B
Thu 09:44:52 AM 36.8770 -87.6760 312° West 412 474 36,000  Level FlightAware ADS-B
Thu 09:45:28 AM 36.9170 -87.7460 306° West 413 475 36,000  Level FlightAware ADS-B
Thu 09:46:04 AM 36.9560 -87.8150 305° West 414 476 36,000  Level FlightAware ADS-B
Thu 09:46:36 AM 36.9930 -87.8780 306° West 415 478 36,000  Level FlightAware ADS-B
Thu 09:47:09 AM 37.0310 -87.9410 307° West 415 478 36,000  Level FlightAware ADS-B
Thu 09:47:49 AM 37.0770 -88.0180 307° West 417 480 36,000  Level FlightAware ADS-B
Thu 09:48:25 AM 37.1190 -88.0880 307° West 417 480 36,000  Level FlightAware ADS-B
Thu 09:48:59 AM 37.1570 -88.1530 306° West 417 480 36,000  Level FlightAware ADS-B
Thu 09:49:31 AM 37.1940 -88.2160 306° West 416 479 36,000  Level FlightAware ADS-B
Thu 09:50:07 AM 37.2340 -88.2850 306° West 415 478 36,000  Level FlightAware ADS-B
Thu 09:50:39 AM 37.2710 -88.3470 307° West 415 478 36,000  Level FlightAware ADS-B
Thu 09:51:17 AM 37.3130 -88.4210 306° West 415 478 36,000  Level FlightAware ADS-B
Thu 09:51:53 AM 37.3540 -88.4930 306° West 414 476 36,000  Level FlightAware ADS-B
Thu 09:52:27 AM 37.3920 -88.5590 306° West 413 475 36,000  Level FlightAware ADS-B
Thu 09:53:05 AM 37.4340 -88.6330 306° West 412 474 36,000  Level FlightAware ADS-B
Thu 09:53:37 AM 37.4700 -88.6950 306° West 411 473 36,000  Level FlightAware ADS-B
Thu 09:54:09 AM 37.5050 -88.7570 305° West 411 473 36,000  Level FlightAware ADS-B
Thu 09:54:45 AM 37.5450 -88.8270 306° West 410 472 36,000  Level FlightAware ADS-B
Thu 09:55:23 AM 37.5860 -88.9000 305° West 410 472 36,000  Level FlightAware ADS-B
Thu 09:55:59 AM 37.6270 -88.9710 306° West 410 472 36,000 -261 Level FlightAware ADS-B
Thu 09:56:32 AM 37.6610 -89.0320 305° West 412 474 35,700 -882 Descending FlightAware ADS-B
Thu 09:57:07 AM 37.7010 -89.1040 305° West 423 487 35,000 -971 Descending FlightAware ADS-B
Thu 09:57:40 AM 37.7390 -89.1710 306° West 423 487 34,600 -857 Descending FlightAware ADS-B
Thu 09:58:17 AM 37.7810 -89.2470 305° West 432 497 34,000 -493 Descending FlightAware ADS-B
Thu 09:58:53 AM 37.8240 -89.3220 306° West 437 503 34,000  Level FlightAware ADS-B
Thu 09:59:29 AM 37.8650 -89.3960 305° West 436 502 34,000  Level FlightAware ADS-B
Thu 10:00:05 AM 37.9070 -89.4710 305° West 435 501 34,000  Level FlightAware ADS-B
Thu 10:00:38 AM 37.9450 -89.5400 305° West 433 498 34,000  Level FlightAware ADS-B
Thu 10:01:15 AM 37.9850 -89.6120 305° West 433 498 34,000  Level FlightAware ADS-B
Thu 10:01:47 AM 38.0240 -89.6820 305° West 433 498 34,000  Level FlightAware ADS-B
Thu 10:02:24 AM 38.0660 -89.7580 305° West 433 498 34,000  Level FlightAware ADS-B
Thu 10:02:57 AM 38.1040 -89.8280 305° West 432 497 34,000  Level FlightAware ADS-B
Thu 10:03:34 AM 38.1460 -89.9040 305° West 433 498 34,000  Level FlightAware ADS-B
Thu 10:04:06 AM 38.1830 -89.9720 305° West 433 498 34,000  Level FlightAware ADS-B
Thu 10:04:43 AM 38.2250 -90.0490 305° West 433 498 34,000  Level FlightAware ADS-B
Thu 10:05:20 AM 38.2680 -90.1260 305° West 434 499 34,000  Level FlightAware ADS-B
Thu 10:05:52 AM 38.3040 -90.1920 305° West 434 499 34,000  Level FlightAware ADS-B
Thu 10:06:29 AM 38.3460 -90.2700 304° West 434 499 34,000  Level FlightAware ADS-B
Thu 10:07:03 AM 38.3860 -90.3430 305° West 434 499 34,000  Level FlightAware ADS-B
Thu 10:07:37 AM 38.4240 -90.4130 305° West 435 501 34,000  Level FlightAware ADS-B
Thu 10:08:13 AM 38.4630 -90.4860 304° West 435 501 34,000  Level FlightAware ADS-B
Thu 10:08:49 AM 38.5060 -90.5670 304° West 436 502 34,000  Level FlightAware ADS-B
Thu 10:09:26 AM 38.5470 -90.6420 305° West 436 502 34,000  Level FlightAware ADS-B
Thu 10:09:57 AM 38.5840 -90.7100 305° West 436 502 34,000  Level FlightAware ADS-B
Thu 10:10:33 AM 38.6240 -90.7870 304° West 436 502 34,000  Level FlightAware ADS-B
Thu 10:11:10 AM 38.6670 -90.8670 305° West 437 503 34,000  Level FlightAware ADS-B
Thu 10:12:03 AM 38.7160 -90.9590 304° West 437 503 34,000  Level FlightAware ADS-B
Thu 10:12:39 AM 38.7660 -91.0520 305° West 437 503 34,000  Level FlightAware ADS-B
Thu 10:13:15 AM 38.8090 -91.1330 304° West 436 502 34,000  Level FlightAware ADS-B
Thu 10:13:50 AM 38.8480 -91.2080 304° West 436 502 34,000  Level FlightAware ADS-B
Thu 10:14:21 AM 38.8840 -91.2760 304° West 435 501 34,000  Level FlightAware ADS-B
Thu 10:14:58 AM 38.9250 -91.3550 304° West 435 501 34,000  Level FlightAware ADS-B
Thu 10:15:34 AM 38.9650 -91.4310 304° West 435 501 34,000  Level FlightAware ADS-B
Thu 10:16:10 AM 39.0060 -91.5090 304° West 434 499 34,000  Level FlightAware ADS-B
Thu 10:16:47 AM 39.0470 -91.5870 304° West 434 499 34,000  Level FlightAware ADS-B
Thu 10:17:21 AM 39.0850 -91.6600 304° West 434 499 34,000  Level FlightAware ADS-B
Thu 10:17:54 AM 39.1220 -91.7310 304° West 434 499 34,000  Level FlightAware ADS-B
Thu 10:18:31 AM 39.1630 -91.8110 303° West 434 499 34,000  Level FlightAware ADS-B
Thu 10:19:06 AM 39.2020 -91.8860 304° West 434 499 34,000  Level FlightAware ADS-B
Thu 10:19:36 AM 39.2360 -91.9510 304° West 434 499 34,000  Level FlightAware ADS-B
Thu 10:20:14 AM 39.2770 -92.0310 304° West 434 499 34,000  Level FlightAware ADS-B
Thu 10:20:50 AM 39.3170 -92.1090 304° West 435 501 34,000  Level FlightAware ADS-B
Thu 10:21:22 AM 39.3520 -92.1780 303° West 434 499 34,000  Level FlightAware ADS-B
Thu 10:21:59 AM 39.3940 -92.2600 304° West 434 499 34,000  Level FlightAware ADS-B
Thu 10:22:34 AM 39.4330 -92.3360 304° West 435 501 34,000  Level FlightAware ADS-B
Thu 10:23:10 AM 39.4710 -92.4110 303° West 435 501 34,000  Level FlightAware ADS-B
Thu 10:23:39 AM 39.5020 -92.4730 303° West 435 501 34,000  Level FlightAware ADS-B
Thu 10:24:30 AM 39.5560 -92.5790 303° West 436 502 34,000  Level FlightAware ADS-B
Thu 10:24:58 AM 39.5910 -92.6480 303° West 436 502 34,000  Level FlightAware ADS-B
Thu 10:25:43 AM 39.6350 -92.7350 303° West 436 502 34,000  Level FlightAware ADS-B
Thu 10:26:11 AM 39.6710 -92.8080 303° West 436 502 34,000  Level FlightAware ADS-B
Thu 10:26:50 AM 39.7130 -92.8900 304° West 436 502 34,000  Level FlightAware ADS-B
Thu 10:27:29 AM 39.7570 -92.9790 303° West 436 502 34,000  Level FlightAware ADS-B
Thu 10:28:16 AM 39.8090 -93.0840 303° West 436 502 34,000  Level FlightAware ADS-B
Thu 10:28:54 AM 39.8500 -93.1660 303° West 437 503 34,000  Level FlightAware ADS-B
Thu 10:29:30 AM 39.8890 -93.2460 302° West 437 503 34,000  Level FlightAware ADS-B
Thu 10:30:02 AM 39.9260 -93.3180 304° West 437 503 34,000  Level FlightAware ADS-B
Thu 10:30:23 AM 39.9467 -93.3613 302° West 438 504 34,000  Level FlightAware ADS-B
Thu 10:30:54 AM 39.9819 -93.4329 303° West 438 504 34,000  Level FlightAware ADS-B
Thu 10:31:33 AM 39.9870 -93.4431 303° West 438 504 34,000  Level FlightAware ADS-B
Thu 10:32:23 AM 40.0790 -93.6310 303° West 440 506 34,000  Level FlightAware ADS-B
Thu 10:32:58 AM 40.1170 -93.7090 303° West 439 505 34,000  Level FlightAware ADS-B
Thu 10:33:35 AM 40.1570 -93.7920 302° West 440 506 34,000  Level FlightAware ADS-B
Thu 10:34:07 AM 40.1920 -93.8630 303° West 440 506 34,000  Level FlightAware ADS-B
Thu 10:34:40 AM 40.2280 -93.9370 303° West 440 506 34,000  Level FlightAware ADS-B
Thu 10:35:20 AM 40.2670 -94.0190 302° West 440 506 34,000  Level FlightAware ADS-B
Thu 10:35:51 AM 40.3060 -94.0990 303° West 440 506 34,000  Level FlightAware ADS-B
Thu 10:36:26 AM 40.3430 -94.1760 302° West 440 506 34,000  Level FlightAware ADS-B
Thu 10:37:02 AM 40.3820 -94.2580 302° West 439 505 34,000  Level FlightAware ADS-B
Thu 10:37:39 AM 40.4220 -94.3410 302° West 439 505 34,000  Level FlightAware ADS-B
Thu 10:38:10 AM 40.4560 -94.4110 303° West 439 505 34,000  Level FlightAware ADS-B
Thu 10:38:54 AM 40.5020 -94.5090 302° West 439 505 34,000  Level FlightAware ADS-B
Thu 10:39:31 AM 40.5420 -94.5930 302° West 439 505 34,000  Level FlightAware ADS-B
Thu 10:40:03 AM 40.5770 -94.6660 302° West 438 504 34,000  Level FlightAware ADS-B
Thu 10:40:38 AM 40.6140 -94.7460 301° West 438 504 34,000  Level FlightAware ADS-B
Thu 10:41:13 AM 40.6510 -94.8240 302° West 438 504 34,000  Level FlightAware ADS-B
Thu 10:41:50 AM 40.6900 -94.9080 301° West 438 504 34,000  Level FlightAware ADS-B
Thu 10:42:22 AM 40.7240 -94.9800 302° West 439 505 34,000  Level FlightAware ADS-B
Thu 10:43:01 AM 40.7670 -95.0710 302° West 438 504 34,000  Level FlightAware ADS-B
Thu 10:43:31 AM 40.7970 -95.1360 301° West 438 504 34,000  Level FlightAware ADS-B
Thu 10:44:04 AM 40.8330 -95.2130 302° West 438 504 34,000  Level FlightAware ADS-B
Thu 10:44:43 AM 40.8740 -95.3020 301° West 439 505 34,000  Level FlightAware ADS-B
Thu 10:45:22 AM 40.9160 -95.3920 302° West 438 504 34,000  Level FlightAware ADS-B
Thu 10:45:53 AM 40.9480 -95.4610 302° West 438 504 34,000  Level FlightAware ADS-B
Thu 10:46:30 AM 40.9870 -95.5460 301° West 438 504 34,000  Level FlightAware ADS-B
Thu 10:47:06 AM 41.0250 -95.6300 301° West 439 505 34,000  Level FlightAware ADS-B
Thu 10:47:41 AM 41.0610 -95.7070 302° West 439 505 34,000  Level FlightAware ADS-B
Thu 10:48:10 AM 41.0920 -95.7760 301° West 438 504 34,000  Level FlightAware ADS-B
Thu 10:48:52 AM 41.1340 -95.8690 301° West 438 504 34,000  Level FlightAware ADS-B
Thu 10:49:25 AM 41.1680 -95.9440 301° West 438 504 34,000  Level FlightAware ADS-B
Thu 10:49:59 AM 41.2050 -96.0240 302° West 439 505 34,000  Level FlightAware ADS-B
Thu 10:50:36 AM 41.2440 -96.1110 301° West 440 506 34,000  Level FlightAware ADS-B
Thu 10:51:07 AM 41.2760 -96.1820 301° West 441 507 34,000  Level FlightAware ADS-B
Thu 10:51:44 AM 41.3140 -96.2680 300° West 442 509 34,000  Level FlightAware ADS-B
Thu 10:52:15 AM 41.3480 -96.3430 301° West 442 509 34,000  Level FlightAware ADS-B
Thu 10:52:55 AM 41.3890 -96.4360 300° West 442 509 34,000  Level FlightAware ADS-B
Thu 10:53:31 AM 41.4270 -96.5200 301° West 442 509 34,000  Level FlightAware ADS-B
Thu 10:54:04 AM 41.4610 -96.5970 301° West 443 510 34,000  Level FlightAware ADS-B
Thu 10:54:39 AM 41.4980 -96.6790 301° West 444 511 34,000  Level FlightAware ADS-B
Thu 10:55:15 AM 41.5350 -96.7650 300° West 445 512 34,000  Level FlightAware ADS-B
Thu 10:55:46 AM 41.5680 -96.8390 301° West 445 512 34,000  Level FlightAware ADS-B
Thu 10:56:25 AM 41.6080 -96.9300 300° West 445 512 34,000  Level FlightAware ADS-B
Thu 10:56:58 AM 41.6410 -97.0070 300° West 443 510 34,000  Level FlightAware ADS-B
Thu 10:57:52 AM 41.6890 -97.1250 299° West 443 510 34,000  Level FlightAware ADS-B
Thu 10:58:22 AM 41.7210 -97.2010 299° West 443 510 34,000  Level FlightAware ADS-B
Thu 10:58:55 AM 41.7550 -97.2840 299° West 444 511 34,000  Level FlightAware ADS-B
Thu 10:59:31 AM 41.7920 -97.3740 299° West 443 510 34,000  Level FlightAware ADS-B
Thu 11:00:20 AM 41.8360 -97.4850 298° West 443 510 34,000  Level FlightAware ADS-B
Thu 11:00:56 AM 41.8660 -97.5590 299° West 443 510 34,000  Level FlightAware ADS-B
Thu 11:01:33 AM 41.8960 -97.6360 298° West 443 510 34,000  Level FlightAware ADS-B
Thu 11:02:09 AM 41.9260 -97.7100 299° West 443 510 34,000  Level FlightAware ADS-B
Thu 11:02:47 AM 41.9570 -97.7890 298° West 443 510 34,000  Level FlightAware ADS-B
Thu 11:03:25 AM 41.9880 -97.8670 298° West 443 510 34,000  Level FlightAware ADS-B
Thu 11:04:02 AM 42.0180 -97.9440 298° West 443 510 34,000  Level FlightAware ADS-B
Thu 11:04:36 AM 42.0460 -98.0140 298° West 443 510 34,000  Level FlightAware ADS-B
Thu 11:05:13 AM 42.0760 -98.0910 298° West 443 510 34,000  Level FlightAware ADS-B
Thu 11:05:49 AM 42.1050 -98.1650 298° West 443 510 34,000  Level FlightAware ADS-B
Thu 11:06:26 AM 42.1360 -98.2420 299° West 443 510 34,000  Level FlightAware ADS-B
Thu 11:07:12 AM 42.1730 -98.3380 298° West 443 510 34,000  Level FlightAware ADS-B
Thu 11:07:48 AM 42.2030 -98.4120 299° West 443 510 34,000  Level FlightAware ADS-B
Thu 11:08:25 AM 42.2330 -98.4890 298° West 443 510 34,000  Level FlightAware ADS-B
Thu 11:09:00 AM 42.2620 -98.5620 298° West 443 510 34,000  Level FlightAware ADS-B
Thu 11:09:38 AM 42.2930 -98.6410 298° West 443 510 34,000 1,714 Level FlightAware ADS-B
Thu 11:10:10 AM 42.3975 -98.8894 298° West 440 506 36,000 1,348 Climbing Denver Center
Thu 11:11:07 AM 42.4461 -99.0161 298° West 442 509 36,000  Level Minneapolis Center
Thu 11:12:09 AM 42.5028 -99.1636 298° West 443 510 36,000  Level Minneapolis Center
Thu 11:13:11 AM 42.5597 -99.3111 298° West 441 507 36,000  Level Minneapolis Center
Thu 11:14:13 AM 42.6242 -99.4789 298° West 438 504 36,000  Level Minneapolis Center
Thu 11:15:15 AM 42.6789 -99.6244 297° West 435 501 36,000  Level Minneapolis Center
Thu 11:16:18 AM 42.7331 -99.7669 297° West 429 494 36,000  Level Minneapolis Center
Thu 11:17:24 AM 42.7983 -99.9414 297° West 430 495 36,000  Level Denver Center
Thu 11:18:38 AM 42.8506 -100.0794 297° West 415 478 36,000  Level Denver Center
Thu 11:19:24 AM 42.9019 -100.2169 297° West 414 476 36,000  Level Minneapolis Center
Thu 11:20:26 AM 42.9533 -100.3575 297° West 413 475 36,000  Level Minneapolis Center
Thu 11:21:28 AM 43.0056 -100.4978 297° West 413 475 36,000  Level Minneapolis Center
Thu 11:22:30 AM 43.0575 -100.6356 297° West 411 473 36,000  Level Minneapolis Center
Thu 11:23:32 AM 43.1089 -100.7756 297° West 410 472 36,000  Level Minneapolis Center
Thu 11:24:34 AM 43.1606 -100.9194 296° West 413 475 36,000  Level Minneapolis Center
Thu 11:25:36 AM 43.2231 -101.0947 296° West 418 481 36,000  Level Minneapolis Center
Thu 11:26:38 AM 43.2744 -101.2414 296° West 421 484 36,000  Level Minneapolis Center
Thu 11:27:57 AM 43.3392 -101.4183 297° West 423 487 36,000  Level Denver Center
Thu 11:28:59 AM 43.3906 -101.5631 296° West 422 486 36,000 532 Level Denver Center
Thu 11:30:01 AM 43.4417 -101.7083 296° West 422 486 37,100 968 Climbing Denver Center
Thu 11:31:03 AM 43.5014 -101.8775 296° West 413 475 38,000 435 Climbing Denver Center
Thu 11:32:05 AM 43.5500 -102.0175 296° West 407 468 38,000  Level Denver Center
Thu 11:33:07 AM 43.6000 -102.1619 296° West 407 468 38,000  Level Denver Center
Thu 11:34:21 AM 43.6486 -102.2992 296° West 412 474 38,000  Level Denver Center
Thu 11:35:24 AM 43.7075 -102.4811 294° West 410 472 38,000  Level Denver Center
Thu 11:36:26 AM 43.7647 -102.6439 296° West 415 478 38,000  Level Denver Center
Thu 11:37:28 AM 43.8139 -102.7858 296° West 421 484 38,000  Level Denver Center
Thu 11:38:30 AM 43.8714 -102.9508 296° West 426 490 38,000  Level Denver Center
Thu 11:39:32 AM 43.9175 -103.0906 295° West 423 487 38,000  Level Denver Center
Thu 11:40:34 AM 43.9725 -103.2553 295° West 421 484 38,000  Level Denver Center
Thu 11:41:36 AM 44.0117 -103.3753 294° West 425 489 38,000  Level Denver Center
Thu 11:42:38 AM 44.0739 -103.5614 295° West 422 486 38,000  Level Denver Center
Thu 11:43:41 AM 44.1206 -103.7036 295° West 422 486 38,000  Level Denver Center
Thu 11:44:43 AM 44.1747 -103.8708 294° West 425 489 38,000  Level Denver Center
Thu 11:45:45 AM 44.2200 -104.0114 294° West 421 484 38,000  Level Denver Center
Thu 11:46:47 AM 44.2653 -104.1539 294° West 422 486 38,000  Level Denver Center
Thu 11:52:15 AM 44.5330 -104.9990 294° West 427 491 38,000  Level FlightAware ADS-B
Thu 11:52:50 AM 44.5570 -105.0790 293° West 428 493 38,000  Level FlightAware ADS-B
Thu 11:53:24 AM 44.5880 -105.1780 294° West 428 493 38,000  Level FlightAware ADS-B
Thu 11:54:01 AM 44.6170 -105.2710 294° West 426 490 38,000  Level FlightAware ADS-B
Thu 11:54:34 AM 44.6420 -105.3540 293° West 427 491 38,000  Level FlightAware ADS-B
Thu 11:55:07 AM 44.6690 -105.4390 294° West 429 494 38,000  Level FlightAware ADS-B
Thu 11:55:45 AM 44.6990 -105.5380 293° West 430 495 38,000  Level FlightAware ADS-B
Thu 11:56:20 AM 44.7260 -105.6280 293° West 430 495 38,000  Level FlightAware ADS-B
Thu 11:56:54 AM 44.7530 -105.7150 294° West 429 494 38,000  Level FlightAware ADS-B
Thu 11:57:29 AM 44.7800 -105.8050 293° West 426 490 38,000  Level FlightAware ADS-B
Thu 11:58:06 AM 44.8080 -105.8990 293° West 426 490 38,000  Level FlightAware ADS-B
Thu 11:58:36 AM 44.8310 -105.9760 293° West 427 491 38,000  Level FlightAware ADS-B
Thu 11:59:13 AM 44.8590 -106.0710 293° West 427 491 38,000  Level FlightAware ADS-B
Thu 11:59:50 AM 44.8880 -106.1650 294° West 429 494 38,000  Level FlightAware ADS-B
Thu 12:00:25 PM 44.9140 -106.2530 293° West 429 494 38,000  Level FlightAware ADS-B
Thu 12:01:01 PM 44.9410 -106.3460 292° West 429 494 38,000  Level FlightAware ADS-B
Thu 12:01:34 PM 44.9670 -106.4320 293° West 428 493 38,000  Level FlightAware ADS-B
Thu 12:02:08 PM 44.9920 -106.5200 292° West 428 493 38,000  Level FlightAware ADS-B
Thu 12:02:45 PM 45.0190 -106.6110 293° West 427 491 38,000  Level FlightAware ADS-B
Thu 12:03:22 PM 45.0480 -106.7090 293° West 426 490 38,000  Level FlightAware ADS-B
Thu 12:03:55 PM 45.0720 -106.7930 292° West 424 488 38,000  Level FlightAware ADS-B
Thu 12:04:32 PM 45.0990 -106.8880 292° West 424 488 38,000  Level FlightAware ADS-B
Thu 12:05:07 PM 45.1250 -106.9780 292° West 421 484 38,000  Level FlightAware ADS-B
Thu 12:05:39 PM 45.1490 -107.0610 292° West 419 482 38,000  Level FlightAware ADS-B
Thu 12:06:12 PM 45.1730 -107.1440 292° West 417 480 38,000  Level FlightAware ADS-B
Thu 12:06:49 PM 45.1990 -107.2370 292° West 417 480 38,000  Level FlightAware ADS-B
Thu 12:07:26 PM 45.2260 -107.3300 292° West 416 479 38,000  Level FlightAware ADS-B
Thu 12:08:00 PM 45.2500 -107.4160 292° West 416 479 38,000  Level FlightAware ADS-B
Thu 12:08:34 PM 45.2750 -107.5040 292° West 416 479 38,000  Level FlightAware ADS-B
Thu 12:09:09 PM 45.3000 -107.5920 292° West 417 480 38,000  Level FlightAware ADS-B
Thu 12:09:48 PM 45.3270 -107.6910 291° West 418 481 38,000  Level FlightAware ADS-B
Thu 12:10:23 PM 45.3520 -107.7800 292° West 418 481 38,000  Level FlightAware ADS-B
Thu 12:10:55 PM 45.3750 -107.8620 292° West 418 481 38,000  Level FlightAware ADS-B
Thu 12:11:32 PM 45.4010 -107.9570 291° West 419 482 38,000  Level FlightAware ADS-B
Thu 12:12:04 PM 45.4160 -108.0120 291° West 419 482 38,000  Level FlightAware ADS-B
Thu 12:12:40 PM 45.4490 -108.1290 292° West 421 484 38,000  Level FlightAware ADS-B
Thu 12:13:12 PM 45.4720 -108.2140 291° West 422 486 38,000  Level FlightAware ADS-B
Thu 12:13:50 PM 45.4990 -108.3140 291° West 421 484 38,000  Level FlightAware ADS-B
Thu 12:14:23 PM 45.5220 -108.3980 291° West 422 486 38,000  Level FlightAware ADS-B
Thu 12:15:02 PM 45.5500 -108.5000 291° West 423 487 38,000  Level FlightAware ADS-B
Thu 12:15:35 PM 45.5720 -108.5830 291° West 424 488 38,000  Level FlightAware ADS-B
Thu 12:16:09 PM 45.5960 -108.6730 291° West 424 488 38,000  Level FlightAware ADS-B
Thu 12:16:44 PM 45.6210 -108.7650 291° West 426 490 38,000  Level FlightAware ADS-B
Thu 12:17:20 PM 45.6450 -108.8550 291° West 426 490 38,000  Level FlightAware ADS-B
Thu 12:18:02 PM 45.6750 -108.9700 291° West 430 495 38,000  Level FlightAware ADS-B
Thu 12:18:37 PM 45.7000 -109.0640 291° West 434 499 38,000  Level FlightAware ADS-B
Thu 12:19:14 PM 45.7260 -109.1630 291° West 437 503 38,000  Level FlightAware ADS-B
Thu 12:19:44 PM 45.7480 -109.2440 291° West 439 505 38,000  Level FlightAware ADS-B
Thu 12:20:23 PM 45.7750 -109.3510 290° West 441 507 38,000  Level FlightAware ADS-B
Thu 12:21:00 PM 45.8020 -109.4530 291° West 442 509 38,000  Level FlightAware ADS-B
Thu 12:21:34 PM 45.8260 -109.5460 290° West 442 509 38,000  Level FlightAware ADS-B
Thu 12:22:09 PM 45.8510 -109.6410 291° West 443 510 38,000  Level FlightAware ADS-B
Thu 12:22:42 PM 45.8740 -109.7310 290° West 443 510 38,000  Level FlightAware ADS-B
Thu 12:23:16 PM 45.8980 -109.8260 290° West 443 510 38,000  Level FlightAware ADS-B
Thu 12:23:51 PM 45.9230 -109.9230 290° West 443 510 38,000  Level FlightAware ADS-B
Thu 12:24:26 PM 45.9470 -110.0190 290° West 444 511 38,000  Level FlightAware ADS-B
Thu 12:25:05 PM 45.9740 -110.1260 290° West 444 511 38,000  Level FlightAware ADS-B
Thu 12:25:39 PM 45.9980 -110.2220 290° West 445 512 38,000  Level FlightAware ADS-B
Thu 12:26:05 PM 46.0160 -110.2920 290° West 446 513 38,000  Level FlightAware ADS-B
Thu 12:26:40 PM 46.0410 -110.3920 290° West 448 516 38,000  Level FlightAware ADS-B
Thu 12:27:17 PM 46.0660 -110.4940 289° West 449 517 38,000  Level FlightAware ADS-B
Thu 12:27:52 PM 46.0900 -110.5920 289° West 448 516 38,000  Level FlightAware ADS-B
Thu 12:28:29 PM 46.1160 -110.6970 290° West 450 518 38,000  Level FlightAware ADS-B
Thu 12:29:01 PM 46.1380 -110.7880 289° West 451 519 38,000  Level FlightAware ADS-B
Thu 12:29:35 PM 46.1620 -110.8830 290° West 451 519 38,000  Level FlightAware ADS-B
Thu 12:30:12 PM 46.1880 -110.9910 289° West 451 519 38,000  Level FlightAware ADS-B
Thu 12:30:44 PM 46.2100 -111.0810 289° West 451 519 38,000  Level FlightAware ADS-B
Thu 12:31:17 PM 46.2320 -111.1720 289° West 451 519 38,000  Level FlightAware ADS-B
Thu 12:31:58 PM 46.2600 -111.2910 289° West 453 521 38,000  Level FlightAware ADS-B
Thu 12:32:33 PM 46.2840 -111.3910 289° West 453 521 38,000  Level FlightAware ADS-B
Thu 12:33:05 PM 46.3060 -111.4830 289° West 454 522 38,000  Level FlightAware ADS-B
Thu 12:33:42 PM 46.3310 -111.5890 289° West 455 524 38,000  Level FlightAware ADS-B
Thu 12:34:15 PM 46.3530 -111.6830 289° West 456 525 38,000  Level FlightAware ADS-B
Thu 12:34:48 PM 46.3750 -111.7790 288° West 456 525 38,000  Level FlightAware ADS-B
Thu 12:35:26 PM 46.4000 -111.8840 289° West 457 526 38,000  Level FlightAware ADS-B
Thu 12:36:02 PM 46.4250 -111.9910 289° West 457 526 38,000  Level FlightAware ADS-B
Thu 12:36:40 PM 46.4460 -112.0850 288° West 457 526 38,000  Level FlightAware ADS-B
Thu 12:37:09 PM 46.4690 -112.1830 289° West 459 528 38,000  Level FlightAware ADS-B
Thu 12:37:46 PM 46.4940 -112.2930 288° West 460 529 38,000  Level FlightAware ADS-B
Thu 12:38:23 PM 46.5150 -112.3860 288° West 460 529 38,000  Level FlightAware ADS-B
Thu 12:38:58 PM 46.5350 -112.4730 289° West 460 529 38,000  Level FlightAware ADS-B
Thu 12:39:35 PM 46.5550 -112.5660 287° West 460 529 38,000  Level FlightAware ADS-B
Thu 12:40:09 PM 46.5740 -112.6510 288° West 460 529 38,000  Level FlightAware ADS-B
Thu 12:40:47 PM 46.5960 -112.7460 289° West 460 529 38,000  Level FlightAware ADS-B
Thu 12:41:24 PM 46.6160 -112.8390 287° West 460 529 38,000  Level FlightAware ADS-B
Thu 12:42:00 PM 46.6610 -113.0370 288° West 460 529 38,000  Level FlightAware ADS-B
Thu 12:42:36 PM 46.6850 -113.1430 288° West 460 529 38,000  Level FlightAware ADS-B
Thu 12:43:17 PM 46.7070 -113.2490 287° West 460 529 38,000  Level FlightAware ADS-B
Thu 12:43:55 PM 46.7270 -113.3450 287° West 460 529 38,000  Level FlightAware ADS-B
Thu 12:44:41 PM 46.7520 -113.4610 287° West 460 529 38,000  Level FlightAware ADS-B
Thu 12:45:17 PM 46.7710 -113.5520 287° West 460 529 38,000  Level FlightAware ADS-B
Thu 12:46:29 PM 46.8320 -113.8240 288° West 465 535 38,000  Level FlightAware ADS-B
Thu 12:47:05 PM 46.8550 -113.9360 287° West 465 535 38,000  Level FlightAware ADS-B
Thu 12:47:41 PM 46.8770 -114.0390 287° West 465 535 38,000  Level FlightAware ADS-B
Thu 12:48:23 PM 46.9040 -114.1680 287° West 466 536 38,000  Level FlightAware ADS-B
Thu 12:48:59 PM 46.9270 -114.2760 287° West 466 536 38,000  Level FlightAware ADS-B
Thu 12:49:48 PM 46.9550 -114.4140 287° West 466 536 38,000  Level FlightAware ADS-B
Thu 12:50:24 PM 46.9740 -114.5060 287° West 466 536 38,000  Level FlightAware ADS-B
Thu 12:50:58 PM 46.9930 -114.5940 288° West 466 536 38,000  Level FlightAware ADS-B
Thu 12:51:34 PM 47.0120 -114.6860 287° West 466 536 38,000  Level FlightAware ADS-B
Thu 12:52:10 PM 47.0310 -114.7790 287° West 466 536 38,000  Level FlightAware ADS-B
Thu 12:52:47 PM 47.0510 -114.8740 287° West 466 536 38,000  Level FlightAware ADS-B
Thu 12:53:31 PM 47.0750 -114.9870 287° West 466 536 38,000  Level FlightAware ADS-B
Thu 12:54:07 PM 47.0940 -115.0800 287° West 466 536 38,000  Level FlightAware ADS-B
Thu 12:54:44 PM 47.1140 -115.1750 287° West 466 536 38,000  Level FlightAware ADS-B
Thu 12:55:22 PM 47.1340 -115.2730 287° West 466 536 38,000  Level FlightAware ADS-B
Thu 12:55:57 PM 47.1530 -115.3630 287° West 466 536 38,000  Level FlightAware ADS-B
Thu 12:56:33 PM 47.1720 -115.4560 287° West 466 536 38,000  Level FlightAware ADS-B
Thu 12:57:10 PM 47.1920 -115.5510 287° West 466 536 38,000  Level FlightAware ADS-B
Thu 12:57:44 PM 47.2100 -115.6390 287° West 466 536 38,000  Level FlightAware ADS-B
Thu 12:58:20 PM 47.2290 -115.7320 287° West 466 536 38,000  Level FlightAware ADS-B
Thu 12:58:58 PM 47.2500 -115.8300 288° West 466 536 38,000 -76 Level FlightAware ADS-B
Thu 12:59:39 PM 47.2997 -116.1667 288° West 458 527 37,900  Descending Seattle Center
Thu 01:00:40 PM 47.3347 -116.3497 286° West 463 533 38,000 49 Climbing Seattle Center
Thu 01:01:41 PM 47.3683 -116.5314 285° West 461 531 38,000  Level Seattle Center
Thu 01:02:42 PM 47.4081 -116.7522 285° West 463 533 38,000  Level Seattle Center
Thu 01:03:43 PM 47.4428 -116.9361 286° West 463 533 38,000  Level Seattle Center
Thu 01:04:44 PM 47.4772 -117.1247 285° West 463 533 38,000 -49 Level Seattle Center
Thu 01:05:46 PM 47.5097 -117.3153 284° West 466 536 37,900  Descending Seattle Center
Thu 01:11:36 PM 47.6390 -118.4170 284° West 467 537 38,000 16 Climbing FlightAware ADS-B
Thu 01:12:10 PM 47.6490 -118.5260 278° West 467 537 38,000  Level FlightAware ADS-B
Thu 01:12:45 PM 47.6590 -118.6400 277° West 465 535 38,000  Level FlightAware ADS-B
Thu 01:13:21 PM 47.6690 -118.7550 277° West 465 535 38,000  Level FlightAware ADS-B
Thu 01:13:59 PM 47.6790 -118.8730 277° West 465 535 38,000  Level FlightAware ADS-B
Thu 01:14:31 PM 47.6880 -118.9750 278° West 465 535 38,000  Level FlightAware ADS-B
Thu 01:15:07 PM 47.6980 -119.0900 277° West 464 534 38,000  Level FlightAware ADS-B
Thu 01:15:36 PM 47.7046 -119.1745 277° West 465 535 38,000  Level FlightAware ADS-B
Thu 01:16:10 PM 47.7140 -119.2890 277° West 465 535 38,000  Level FlightAware ADS-B
Thu 01:16:53 PM 47.7250 -119.4250 277° West 462 532 38,000  Level FlightAware ADS-B
Thu 01:16:57 PM 47.7257 -119.4328 278° West 462 532 38,000  Level FlightAware ADS-B
Thu 01:17:24 PM 47.7329 -119.5220 277° West 465 535 38,000  Level FlightAware ADS-B
Thu 01:17:30 PM 47.7345 -119.5413 277° West 460 529 38,000 -387 Level FlightAware ADS-B
Thu 01:17:55 PM 47.7405 -119.6180 277° West 457 526 37,800 -837 Descending FlightAware ADS-B
Thu 01:18:13 PM 47.7451 -119.6751 277° West 458 527 37,400 -1,200 Descending FlightAware ADS-B
Thu 01:18:25 PM 47.7480 -119.7120 277° West 458 527 37,200 -1,857 Descending FlightAware ADS-B
Thu 01:18:55 PM 47.7553 -119.8050 277° West 463 533 36,100 -2,600 Descending FlightAware ADS-B
Thu 01:19:25 PM 47.7626 -119.9010 276° West 468 539 34,600 -3,097 Descending FlightAware ADS-B
Thu 01:19:57 PM 47.7704 -120.0020 277° West 469 540 32,900 -3,143 Descending FlightAware ADS-B
Thu 01:20:28 PM 47.7778 -120.1000 276° West 469 540 31,300 -3,344 Descending FlightAware ADS-B
Thu 01:20:58 PM 47.7851 -120.1980 276° West 469 540 29,500 -3,541 Descending FlightAware ADS-B
Thu 01:21:29 PM 47.7924 -120.2960 276° West 470 541 27,700 -2,459 Descending FlightAware ADS-B
Thu 01:21:59 PM 47.7990 -120.3890 276° West 440 506 27,000 -1,400 Descending FlightAware ADS-B
Thu 01:22:29 PM 47.8052 -120.4770 276° West 406 467 26,300 -1,869 Descending FlightAware ADS-B
Thu 01:23:00 PM 47.8111 -120.5600 276° West 395 455 25,100 -2,361 Descending FlightAware ADS-B
Thu 01:23:30 PM 47.8168 -120.6410 276° West 387 445 23,900 -2,500 Descending FlightAware ADS-B
Thu 01:24:00 PM 47.8224 -120.7190 276° West 380 437 22,600 -2,500 Descending FlightAware ADS-B
Thu 01:24:30 PM 47.8278 -120.7970 276° West 373 429 21,400 -2,361 Descending FlightAware ADS-B
Thu 01:25:01 PM 47.8330 -120.8730 276° West 368 423 20,200 -2,262 Descending FlightAware ADS-B
Thu 01:25:31 PM 47.8382 -120.9490 276° West 365 420 19,100 -1,900 Descending FlightAware ADS-B
Thu 01:26:01 PM 47.8432 -121.0230 276° West 355 409 18,300 -1,500 Descending FlightAware ADS-B
Thu 01:26:31 PM 47.8479 -121.0950 276° West 354 407 17,600 -1,600 Descending FlightAware ADS-B
Thu 01:27:01 PM 47.8529 -121.1700 276° West 366 421 16,700 -1,700 Descending FlightAware ADS-B
Thu 01:27:31 PM 47.8576 -121.2440 275° West 356 410 15,900 -1,574 Descending FlightAware ADS-B
Thu 01:28:02 PM 47.8623 -121.3180 275° West 345 397 15,100 -1,475 Descending FlightAware ADS-B
Thu 01:28:32 PM 47.8667 -121.3880 275° West 337 388 14,400 -1,500 Descending FlightAware ADS-B
Thu 01:29:02 PM 47.8711 -121.4560 276° West 329 379 13,600 -1,400 Descending FlightAware ADS-B
Thu 01:29:32 PM 47.8753 -121.5240 275° West 321 369 13,000 -1,180 Descending FlightAware ADS-B
Thu 01:30:03 PM 47.8794 -121.5900 275° West 311 358 12,400 -1,180 Descending FlightAware ADS-B
Thu 01:30:33 PM 47.8834 -121.6530 275° West 302 348 11,800 -973 Descending FlightAware ADS-B
Thu 01:30:40 PM 47.8839 -121.6680 273° West 299 344 11,800  Level FlightAware ADS-B
Thu 01:30:45 PM 47.8833 -121.6780 265° West 299 344 11,800  Level FlightAware ADS-B
Thu 01:30:49 PM 47.8826 -121.6850 262° West 298 343 11,800 -600 Level FlightAware ADS-B
Thu 01:30:55 PM 47.8807 -121.6960 256° West 297 342 11,700 -1,385 Descending FlightAware ADS-B
Thu 01:31:02 PM 47.8768 -121.7110 249° West 296 341 11,500 -1,680 Descending FlightAware ADS-B
Thu 01:31:20 PM 47.8668 -121.7430 245° Southwest 298 343 11,000 -1,592 Descending FlightAware ADS-B
Thu 01:31:51 PM 47.8502 -121.8010 247° West 299 344 10,200 -1,565 Descending FlightAware ADS-B
Thu 01:32:06 PM 47.8420 -121.8310 248° West 298 343 9,800 -1,400 Descending FlightAware ADS-B
Thu 01:32:21 PM 47.8341 -121.8590 247° West 295 339 9,500 -1,355 Descending FlightAware ADS-B
Thu 01:32:37 PM 47.8258 -121.8890 248° West 295 339 9,100 -1,400 Descending FlightAware ADS-B
Thu 01:32:51 PM 47.8186 -121.9140 247° West 293 337 8,800 -1,200 Descending FlightAware ADS-B
Thu 01:33:07 PM 47.8102 -121.9440 247° West 291 335 8,500 -1,355 Descending FlightAware ADS-B
Thu 01:33:22 PM 47.8024 -121.9710 247° West 289 333 8,100 -1,400 Descending FlightAware ADS-B
Thu 01:33:37 PM 47.7944 -121.9990 247° West 287 330 7,800 -1,161 Descending FlightAware ADS-B
Thu 01:33:53 PM 47.7862 -122.0270 246° West 285 328 7,500 -1,355 Descending FlightAware ADS-B
Thu 01:34:08 PM 47.7784 -122.0540 247° West 285 328 7,100 -1,333 Descending FlightAware ADS-B
Thu 01:34:20 PM 47.7722 -122.0760 247° West 284 327 6,900 -1,154 Descending FlightAware ADS-B
Thu 01:34:34 PM 47.7647 -122.1010 246° West 283 326 6,600 -1,448 Descending FlightAware ADS-B
Thu 01:34:49 PM 47.7571 -122.1280 247° West 277 319 6,200 -1,200 Descending FlightAware ADS-B
Thu 01:35:04 PM 47.7497 -122.1540 247° West 262 302 6,000 -800 Descending FlightAware ADS-B
Thu 01:35:19 PM 47.7427 -122.1780 247° West 245 282 5,800 -480 Descending FlightAware ADS-B
Thu 01:35:29 PM 47.7383 -122.1930 246° West 234 269 5,800 -429 Level FlightAware ADS-B
Thu 01:35:33 PM 47.7372 -122.1970 248° West 232 267 5,700 -857 Descending FlightAware ADS-B
Thu 01:35:36 PM 47.7360 -122.2030 253° West 228 262 5,700  Level FlightAware ADS-B
Thu 01:35:40 PM 47.7351 -122.2090 257° West 224 258 5,700  Level FlightAware ADS-B
Thu 01:35:46 PM 47.7343 -122.2170 262° West 217 250 5,700 -750 Level FlightAware ADS-B
Thu 01:35:56 PM 47.7334 -122.2320 265° West 212 244 5,500 -960 Descending FlightAware ADS-B
Thu 01:36:11 PM 47.7326 -122.2540 267° West 204 235 5,300 -1,071 Descending FlightAware ADS-B
Thu 01:36:24 PM 47.7319 -122.2720 267° West 196 226 5,000 -1,333 Descending FlightAware ADS-B
Thu 01:36:29 PM 47.7311 -122.2780 259° West 195 224 4,900 -750 Descending FlightAware ADS-B
Thu 01:36:32 PM 47.7303 -122.2810 248° West 193 222 4,900 -750 Level FlightAware ADS-B
Thu 01:36:37 PM 47.7279 -122.2880 243° Southwest 190 219 4,800 -667 Descending FlightAware ADS-B
Thu 01:36:41 PM 47.7258 -122.2910 224° Southwest 190 219 4,800  Level FlightAware ADS-B
Thu 01:36:45 PM 47.7231 -122.2950 225° Southwest 188 216 4,800  Level FlightAware ADS-B
Thu 01:36:49 PM 47.7205 -122.2970 207° Southwest 187 215 4,800 -667 Level FlightAware ADS-B
Thu 01:36:54 PM 47.7164 -122.3000 206° Southwest 184 212 4,700 -667 Descending FlightAware ADS-B
Thu 01:36:58 PM 47.7135 -122.3010 193° South 183 211 4,700 -750 Level FlightAware ADS-B
Thu 01:37:02 PM 47.7102 -122.3030 202° Southwest 183 211 4,600 -857 Descending FlightAware ADS-B
Thu 01:37:05 PM 47.7072 -122.3040 193° South 182 209 4,600 -750 Level FlightAware ADS-B
Thu 01:37:10 PM 47.7034 -122.3050 190° South 182 209 4,500 -1,333 Descending FlightAware ADS-B
Thu 01:37:14 PM 47.6995 -122.3050 180° South 182 209 4,400 -923 Descending FlightAware ADS-B
Thu 01:37:23 PM 47.6926 -122.3060 186° South 178 205 4,300 -750 Descending FlightAware ADS-B
Thu 01:37:30 PM 47.6866 -122.3060 180° South 176 203 4,200 -706 Descending FlightAware ADS-B
Thu 01:37:40 PM 47.6791 -122.3060 180° South 175 201 4,100 -667 Descending FlightAware ADS-B
Thu 01:37:48 PM 47.6720 -122.3060 180° South 173 199 4,000 -316 Descending FlightAware ADS-B
Thu 01:37:59 PM 47.6629 -122.3060 180° South 179 206 4,000  Level FlightAware ADS-B
Thu 01:38:15 PM 47.6502 -122.3060 180° South 179 206 4,000 -581 Level FlightAware ADS-B
Thu 01:38:30 PM 47.6374 -122.3060 180° South 183 211 3,700 -1,111 Descending FlightAware ADS-B
Thu 01:38:42 PM 47.6277 -122.3060 180° South 184 212 3,500 -923 Descending FlightAware ADS-B
Thu 01:38:56 PM 47.6153 -122.3060 180° South 179 206 3,300 -1,034 Descending FlightAware ADS-B
Thu 01:39:11 PM 47.6032 -122.3070 183° South 170 196 3,000 -1,091 Descending FlightAware ADS-B
Thu 01:39:18 PM 47.5982 -122.3070 180° South 168 193 2,900 -783 Descending FlightAware ADS-B
Thu 01:39:34 PM 47.5859 -122.3070 180° South 168 193 2,700 -909 Descending FlightAware ADS-B
Thu 01:39:51 PM 47.5722 -122.3070 180° South 166 191 2,400 -909 Descending FlightAware ADS-B
Thu 01:40:07 PM 47.5602 -122.3070 180° South 167 192 2,200 -857 Descending FlightAware ADS-B
Thu 01:40:19 PM 47.5507 -122.3070 180° South 166 191 2,000 -818 Descending FlightAware ADS-B
Thu 01:40:29 PM 47.5433 -122.3070 180° South 166 191 1,900 -923 Descending FlightAware ADS-B
Thu 01:40:45 PM 47.5312 -122.3070 180° South 165 190 1,600 -968 Descending FlightAware ADS-B
Thu 01:41:00 PM 47.5200 -122.3070 180° South 154 177 1,400 -774 Descending FlightAware ADS-B
Thu 01:41:16 PM 47.5093 -122.3070 180° South 142 163 1,200 -774 Descending FlightAware ADS-B
Thu 01:41:31 PM 47.4996 -122.3070 180° South 131 151 1,000 -800 Descending FlightAware ADS-B
Thu 01:41:46 PM 47.4907 -122.3080 184° South 129 148 800 -581 Descending FlightAware ADS-B
Thu 01:42:02 PM 47.4813 -122.3080 180° South 130 150 700 -235 Descending FlightAware ADS-B
Thu 01:43:28 PM 47.4319 -122.3081 180° South 129 148 400 -209 Descending Seattle Center

Login

Don't have an account? Register now (free) for customized features, flight alerts, and more!